sensor_id;sensor_type;location;lat;lon;timestamp;P1;durP1;ratioP1;P2;durP2;ratioP2
75645;SDS011;64237;52.438;13.240;2023-09-19T00:01:12;6.43;;;1.80;;
75645;SDS011;64237;52.438;13.240;2023-09-19T00:03:38;3.90;;;1.48;;
75645;SDS011;64237;52.438;13.240;2023-09-19T00:06:04;4.47;;;1.50;;
75645;SDS011;64237;52.438;13.240;2023-09-19T00:08:30;5.10;;;1.85;;
75645;SDS011;64237;52.438;13.240;2023-09-19T00:10:56;3.97;;;1.45;;
75645;SDS011;64237;52.438;13.240;2023-09-19T00:13:30;5.97;;;1.98;;
75645;SDS011;64237;52.438;13.240;2023-09-19T00:15:56;4.32;;;1.45;;
75645;SDS011;64237;52.438;13.240;2023-09-19T00:18:24;3.00;;;1.40;;
75645;SDS011;64237;52.438;13.240;2023-09-19T00:20:56;4.32;;;1.55;;
75645;SDS011;64237;52.438;13.240;2023-09-19T00:23:22;5.13;;;1.38;;
75645;SDS011;64237;52.438;13.240;2023-09-19T00:25:48;4.45;;;1.50;;
75645;SDS011;64237;52.438;13.240;2023-09-19T00:28:13;5.55;;;1.50;;
75645;SDS011;64237;52.438;13.240;2023-09-19T00:30:42;4.75;;;2.00;;
75645;SDS011;64237;52.438;13.240;2023-09-19T00:33:08;3.85;;;1.48;;
75645;SDS011;64237;52.438;13.240;2023-09-19T00:35:33;5.73;;;1.60;;
75645;SDS011;64237;52.438;13.240;2023-09-19T00:37:58;5.00;;;1.85;;
75645;SDS011;64237;52.438;13.240;2023-09-19T00:40:24;3.80;;;1.33;;
75645;SDS011;64237;52.438;13.240;2023-09-19T00:42:50;3.67;;;1.55;;
75645;SDS011;64237;52.438;13.240;2023-09-19T00:45:16;4.30;;;1.42;;
75645;SDS011;64237;52.438;13.240;2023-09-19T00:47:44;3.53;;;1.63;;
75645;SDS011;64237;52.438;13.240;2023-09-19T00:50:15;3.58;;;1.70;;
75645;SDS011;64237;52.438;13.240;2023-09-19T00:52:42;3.35;;;1.55;;
75645;SDS011;64237;52.438;13.240;2023-09-19T00:55:09;3.20;;;1.40;;
75645;SDS011;64237;52.438;13.240;2023-09-19T00:57:36;3.35;;;1.30;;
75645;SDS011;64237;52.438;13.240;2023-09-19T01:00:03;5.43;;;1.85;;
75645;SDS011;64237;52.438;13.240;2023-09-19T01:02:31;3.08;;;1.30;;
75645;SDS011;64237;52.438;13.240;2023-09-19T01:04:57;3.67;;;1.38;;
75645;SDS011;64237;52.438;13.240;2023-09-19T01:07:23;4.05;;;1.45;;
75645;SDS011;64237;52.438;13.240;2023-09-19T01:09:49;3.30;;;1.42;;
75645;SDS011;64237;52.438;13.240;2023-09-19T01:12:16;3.38;;;1.52;;
75645;SDS011;64237;52.438;13.240;2023-09-19T01:17:20;7.25;;;1.73;;
75645;SDS011;64237;52.438;13.240;2023-09-19T01:31:31;5.18;;;1.40;;
75645;SDS011;64237;52.438;13.240;2023-09-19T01:34:01;8.40;;;1.80;;
75645;SDS011;64237;52.438;13.240;2023-09-19T01:36:32;5.10;;;1.65;;
75645;SDS011;64237;52.438;13.240;2023-09-19T01:39:09;4.18;;;1.48;;
75645;SDS011;64237;52.438;13.240;2023-09-19T01:41:51;5.10;;;1.85;;
75645;SDS011;64237;52.438;13.240;2023-09-19T01:44:29;5.07;;;1.50;;
75645;SDS011;64237;52.438;13.240;2023-09-19T01:47:03;3.40;;;1.40;;
75645;SDS011;64237;52.438;13.240;2023-09-19T01:49:42;4.13;;;1.88;;
75645;SDS011;64237;52.438;13.240;2023-09-19T01:52:15;5.93;;;1.58;;
75645;SDS011;64237;52.438;13.240;2023-09-19T01:54:55;3.70;;;1.50;;
75645;SDS011;64237;52.438;13.240;2023-09-19T01:57:35;4.22;;;1.55;;
75645;SDS011;64237;52.438;13.240;2023-09-19T02:00:06;3.35;;;1.55;;
75645;SDS011;64237;52.438;13.240;2023-09-19T02:02:36;5.10;;;1.70;;
75645;SDS011;64237;52.438;13.240;2023-09-19T02:05:03;4.07;;;1.50;;
75645;SDS011;64237;52.438;13.240;2023-09-19T02:07:29;2.75;;;1.45;;
75645;SDS011;64237;52.438;13.240;2023-09-19T02:09:57;6.72;;;1.67;;
75645;SDS011;64237;52.438;13.240;2023-09-19T02:12:24;3.55;;;1.40;;
75645;SDS011;64237;52.438;13.240;2023-09-19T02:14:49;5.93;;;1.65;;
75645;SDS011;64237;52.438;13.240;2023-09-19T02:17:14;5.17;;;1.80;;
75645;SDS011;64237;52.438;13.240;2023-09-19T02:19:40;5.65;;;2.05;;
75645;SDS011;64237;52.438;13.240;2023-09-19T02:22:06;3.70;;;1.40;;
75645;SDS011;64237;52.438;13.240;2023-09-19T02:24:32;4.45;;;1.50;;
75645;SDS011;64237;52.438;13.240;2023-09-19T02:27:07;5.30;;;1.40;;
75645;SDS011;64237;52.438;13.240;2023-09-19T02:29:33;6.30;;;1.80;;
75645;SDS011;64237;52.438;13.240;2023-09-19T02:31:59;3.95;;;1.60;;
75645;SDS011;64237;52.438;13.240;2023-09-19T02:34:27;2.78;;;1.30;;
75645;SDS011;64237;52.438;13.240;2023-09-19T02:36:53;3.97;;;1.60;;
75645;SDS011;64237;52.438;13.240;2023-09-19T02:39:21;6.05;;;1.80;;
75645;SDS011;64237;52.438;13.240;2023-09-19T02:41:46;3.50;;;1.40;;
75645;SDS011;64237;52.438;13.240;2023-09-19T02:44:12;3.53;;;1.48;;
75645;SDS011;64237;52.438;13.240;2023-09-19T02:46:37;3.13;;;1.30;;
75645;SDS011;64237;52.438;13.240;2023-09-19T02:49:03;6.93;;;1.60;;
75645;SDS011;64237;52.438;13.240;2023-09-19T02:51:31;2.20;;;1.30;;
75645;SDS011;64237;52.438;13.240;2023-09-19T02:54:00;6.30;;;1.65;;
75645;SDS011;64237;52.438;13.240;2023-09-19T02:56:27;3.72;;;1.33;;
75645;SDS011;64237;52.438;13.240;2023-09-19T02:58:53;2.13;;;1.40;;
75645;SDS011;64237;52.438;13.240;2023-09-19T03:01:20;4.15;;;1.50;;
75645;SDS011;64237;52.438;13.240;2023-09-19T03:03:45;3.78;;;1.27;;
75645;SDS011;64237;52.438;13.240;2023-09-19T03:06:11;4.45;;;1.67;;
75645;SDS011;64237;52.438;13.240;2023-09-19T03:08:38;5.32;;;1.60;;
75645;SDS011;64237;52.438;13.240;2023-09-19T03:11:05;6.30;;;1.60;;
75645;SDS011;64237;52.438;13.240;2023-09-19T03:13:31;3.38;;;1.60;;
75645;SDS011;64237;52.438;13.240;2023-09-19T03:15:57;2.92;;;1.42;;
75645;SDS011;64237;52.438;13.240;2023-09-19T03:18:23;5.18;;;1.50;;
75645;SDS011;64237;52.438;13.240;2023-09-19T03:20:57;4.72;;;1.50;;
75645;SDS011;64237;52.438;13.240;2023-09-19T03:23:26;4.70;;;1.73;;
75645;SDS011;64237;52.438;13.240;2023-09-19T03:25:52;3.75;;;1.52;;
75645;SDS011;64237;52.438;13.240;2023-09-19T03:28:18;4.13;;;1.50;;
75645;SDS011;64237;52.438;13.240;2023-09-19T03:30:45;3.17;;;1.40;;
75645;SDS011;64237;52.438;13.240;2023-09-19T03:33:11;3.72;;;1.40;;
75645;SDS011;64237;52.438;13.240;2023-09-19T03:35:37;4.10;;;1.38;;
75645;SDS011;64237;52.438;13.240;2023-09-19T03:38:04;6.78;;;1.80;;
75645;SDS011;64237;52.438;13.240;2023-09-19T03:40:30;4.25;;;1.80;;
75645;SDS011;64237;52.438;13.240;2023-09-19T03:42:55;4.13;;;1.38;;
75645;SDS011;64237;52.438;13.240;2023-09-19T03:45:21;5.28;;;1.55;;
75645;SDS011;64237;52.438;13.240;2023-09-19T03:47:46;4.38;;;1.48;;
75645;SDS011;64237;52.438;13.240;2023-09-19T03:50:13;2.05;;;1.10;;
75645;SDS011;64237;52.438;13.240;2023-09-19T03:52:43;5.50;;;1.60;;
75645;SDS011;64237;52.438;13.240;2023-09-19T03:55:09;4.40;;;1.30;;
75645;SDS011;64237;52.438;13.240;2023-09-19T03:57:35;3.15;;;1.60;;
75645;SDS011;64237;52.438;13.240;2023-09-19T04:00:01;2.42;;;1.10;;
75645;SDS011;64237;52.438;13.240;2023-09-19T04:02:27;5.45;;;1.48;;
75645;SDS011;64237;52.438;13.240;2023-09-19T04:04:57;4.00;;;1.25;;
75645;SDS011;64237;52.438;13.240;2023-09-19T04:07:23;2.33;;;0.90;;
75645;SDS011;64237;52.438;13.240;2023-09-19T04:09:50;3.50;;;1.20;;
75645;SDS011;64237;52.438;13.240;2023-09-19T04:12:18;1.67;;;1.08;;
75645;SDS011;64237;52.438;13.240;2023-09-19T04:14:43;2.75;;;1.25;;
75645;SDS011;64237;52.438;13.240;2023-09-19T04:17:09;4.43;;;1.23;;
75645;SDS011;64237;52.438;13.240;2023-09-19T04:19:35;2.13;;;1.10;;
75645;SDS011;64237;52.438;13.240;2023-09-19T04:22:01;3.15;;;0.90;;
75645;SDS011;64237;52.438;13.240;2023-09-19T04:24:26;2.55;;;1.20;;
75645;SDS011;64237;52.438;13.240;2023-09-19T04:26:51;2.50;;;1.05;;
75645;SDS011;64237;52.438;13.240;2023-09-19T04:29:17;3.53;;;1.17;;
75645;SDS011;64237;52.438;13.240;2023-09-19T04:31:44;3.05;;;1.40;;
75645;SDS011;64237;52.438;13.240;2023-09-19T04:34:11;1.80;;;1.00;;
75645;SDS011;64237;52.438;13.240;2023-09-19T04:36:40;1.88;;;1.00;;
75645;SDS011;64237;52.438;13.240;2023-09-19T04:39:06;1.58;;;1.02;;
75645;SDS011;64237;52.438;13.240;2023-09-19T04:41:32;3.30;;;1.00;;
75645;SDS011;64237;52.438;13.240;2023-09-19T04:43:58;3.10;;;0.90;;
75645;SDS011;64237;52.438;13.240;2023-09-19T04:46:24;2.35;;;1.00;;
75645;SDS011;64237;52.438;13.240;2023-09-19T04:48:49;1.75;;;1.08;;
75645;SDS011;64237;52.438;13.240;2023-09-19T04:51:15;3.47;;;0.97;;
75645;SDS011;64237;52.438;13.240;2023-09-19T04:53:40;2.13;;;1.10;;
75645;SDS011;64237;52.438;13.240;2023-09-19T04:56:06;3.08;;;1.00;;
75645;SDS011;64237;52.438;13.240;2023-09-19T04:58:32;2.47;;;1.00;;
75645;SDS011;64237;52.438;13.240;2023-09-19T05:00:58;4.22;;;1.48;;
75645;SDS011;64237;52.438;13.240;2023-09-19T05:03:24;1.50;;;1.35;;
75645;SDS011;64237;52.438;13.240;2023-09-19T05:05:49;3.08;;;1.02;;
75645;SDS011;64237;52.438;13.240;2023-09-19T05:08:15;2.45;;;1.13;;
75645;SDS011;64237;52.438;13.240;2023-09-19T05:10:42;4.95;;;1.20;;
75645;SDS011;64237;52.438;13.240;2023-09-19T05:13:08;2.40;;;1.00;;
75645;SDS011;64237;52.438;13.240;2023-09-19T05:15:33;3.65;;;1.10;;
75645;SDS011;64237;52.438;13.240;2023-09-19T05:18:02;2.33;;;1.10;;
75645;SDS011;64237;52.438;13.240;2023-09-19T05:20:28;3.22;;;1.10;;
75645;SDS011;64237;52.438;13.240;2023-09-19T05:23:06;4.50;;;1.00;;
75645;SDS011;64237;52.438;13.240;2023-09-19T05:25:50;9.25;;;1.52;;
75645;SDS011;64237;52.438;13.240;2023-09-19T05:28:19;3.50;;;1.10;;
75645;SDS011;64237;52.438;13.240;2023-09-19T05:30:44;4.75;;;1.20;;
75645;SDS011;64237;52.438;13.240;2023-09-19T05:33:09;2.60;;;1.38;;
75645;SDS011;64237;52.438;13.240;2023-09-19T05:35:35;3.50;;;1.30;;
75645;SDS011;64237;52.438;13.240;2023-09-19T05:38:07;4.47;;;1.33;;
75645;SDS011;64237;52.438;13.240;2023-09-19T05:40:37;2.28;;;1.15;;
75645;SDS011;64237;52.438;13.240;2023-09-19T05:43:04;3.17;;;1.10;;
75645;SDS011;64237;52.438;13.240;2023-09-19T05:45:34;6.10;;;1.30;;
75645;SDS011;64237;52.438;13.240;2023-09-19T05:50:45;4.32;;;1.02;;
75645;SDS011;64237;52.438;13.240;2023-09-19T05:53:22;3.15;;;1.10;;
75645;SDS011;64237;52.438;13.240;2023-09-19T05:55:54;2.75;;;1.17;;
75645;SDS011;64237;52.438;13.240;2023-09-19T05:58:20;3.67;;;1.10;;
75645;SDS011;64237;52.438;13.240;2023-09-19T06:00:51;3.67;;;1.23;;
75645;SDS011;64237;52.438;13.240;2023-09-19T06:03:17;2.95;;;1.30;;
75645;SDS011;64237;52.438;13.240;2023-09-19T06:05:46;3.40;;;1.30;;
75645;SDS011;64237;52.438;13.240;2023-09-19T06:08:17;2.88;;;1.10;;
75645;SDS011;64237;52.438;13.240;2023-09-19T06:10:46;4.35;;;1.15;;
75645;SDS011;64237;52.438;13.240;2023-09-19T06:13:11;3.75;;;1.10;;
75645;SDS011;64237;52.438;13.240;2023-09-19T06:15:37;4.72;;;1.42;;
75645;SDS011;64237;52.438;13.240;2023-09-19T06:18:05;4.37;;;1.27;;
75645;SDS011;64237;52.438;13.240;2023-09-19T06:20:41;7.05;;;1.40;;
75645;SDS011;64237;52.438;13.240;2023-09-19T06:23:09;2.03;;;1.10;;
75645;SDS011;64237;52.438;13.240;2023-09-19T06:25:35;5.82;;;1.30;;
75645;SDS011;64237;52.438;13.240;2023-09-19T06:28:00;4.55;;;1.48;;
75645;SDS011;64237;52.438;13.240;2023-09-19T06:30:29;3.88;;;1.30;;
75645;SDS011;64237;52.438;13.240;2023-09-19T06:33:01;5.53;;;1.58;;
75645;SDS011;64237;52.438;13.240;2023-09-19T06:35:28;4.43;;;1.30;;
75645;SDS011;64237;52.438;13.240;2023-09-19T06:38:13;5.97;;;1.50;;
75645;SDS011;64237;52.438;13.240;2023-09-19T06:40:46;4.88;;;1.42;;
75645;SDS011;64237;52.438;13.240;2023-09-19T06:43:12;2.97;;;1.15;;
75645;SDS011;64237;52.438;13.240;2023-09-19T06:45:37;3.05;;;1.58;;
75645;SDS011;64237;52.438;13.240;2023-09-19T06:48:03;3.80;;;1.40;;
75645;SDS011;64237;52.438;13.240;2023-09-19T06:50:28;5.80;;;1.50;;
75645;SDS011;64237;52.438;13.240;2023-09-19T06:52:55;3.97;;;1.25;;
75645;SDS011;64237;52.438;13.240;2023-09-19T06:55:25;6.60;;;1.60;;
75645;SDS011;64237;52.438;13.240;2023-09-19T06:57:56;3.15;;;1.60;;
75645;SDS011;64237;52.438;13.240;2023-09-19T07:00:21;3.67;;;1.42;;
75645;SDS011;64237;52.438;13.240;2023-09-19T07:02:57;3.47;;;1.40;;
75645;SDS011;64237;52.438;13.240;2023-09-19T07:05:47;3.67;;;1.27;;
75645;SDS011;64237;52.438;13.240;2023-09-19T07:08:12;4.90;;;1.40;;
75645;SDS011;64237;52.438;13.240;2023-09-19T07:10:41;5.97;;;2.00;;
75645;SDS011;64237;52.438;13.240;2023-09-19T07:13:14;2.60;;;1.25;;
75645;SDS011;64237;52.438;13.240;2023-09-19T07:15:41;5.07;;;1.50;;
75645;SDS011;64237;52.438;13.240;2023-09-19T07:18:20;3.22;;;1.58;;
75645;SDS011;64237;52.438;13.240;2023-09-19T07:20:48;4.35;;;1.70;;
75645;SDS011;64237;52.438;13.240;2023-09-19T07:23:19;5.28;;;1.60;;
75645;SDS011;64237;52.438;13.240;2023-09-19T07:25:46;5.53;;;1.48;;
75645;SDS011;64237;52.438;13.240;2023-09-19T07:28:12;2.92;;;1.60;;
75645;SDS011;64237;52.438;13.240;2023-09-19T07:30:40;7.75;;;1.92;;
75645;SDS011;64237;52.438;13.240;2023-09-19T07:33:15;3.35;;;1.80;;
75645;SDS011;64237;52.438;13.240;2023-09-19T07:35:47;7.43;;;2.08;;
75645;SDS011;64237;52.438;13.240;2023-09-19T07:38:13;5.85;;;1.75;;
75645;SDS011;64237;52.438;13.240;2023-09-19T07:40:41;5.22;;;1.60;;
75645;SDS011;64237;52.438;13.240;2023-09-19T07:43:07;6.07;;;2.67;;
75645;SDS011;64237;52.438;13.240;2023-09-19T07:45:36;7.55;;;1.85;;
75645;SDS011;64237;52.438;13.240;2023-09-19T07:48:02;5.38;;;1.77;;
75645;SDS011;64237;52.438;13.240;2023-09-19T07:50:34;5.68;;;2.15;;
75645;SDS011;64237;52.438;13.240;2023-09-19T07:53:05;5.95;;;1.80;;
75645;SDS011;64237;52.438;13.240;2023-09-19T07:55:31;3.72;;;1.80;;
75645;SDS011;64237;52.438;13.240;2023-09-19T07:58:03;4.53;;;1.75;;
75645;SDS011;64237;52.438;13.240;2023-09-19T08:00:30;5.07;;;1.70;;
75645;SDS011;64237;52.438;13.240;2023-09-19T08:03:00;7.88;;;1.73;;
75645;SDS011;64237;52.438;13.240;2023-09-19T08:05:27;7.88;;;1.70;;
75645;SDS011;64237;52.438;13.240;2023-09-19T08:07:52;5.32;;;1.38;;
75645;SDS011;64237;52.438;13.240;2023-09-19T08:10:24;5.38;;;1.50;;
75645;SDS011;64237;52.438;13.240;2023-09-19T08:12:52;5.75;;;1.77;;
75645;SDS011;64237;52.438;13.240;2023-09-19T08:15:23;4.80;;;1.88;;
75645;SDS011;64237;52.438;13.240;2023-09-19T08:17:51;4.78;;;1.80;;
75645;SDS011;64237;52.438;13.240;2023-09-19T08:20:20;4.18;;;1.80;;
75645;SDS011;64237;52.438;13.240;2023-09-19T08:22:52;4.75;;;1.85;;
75645;SDS011;64237;52.438;13.240;2023-09-19T08:25:36;4.13;;;1.67;;
75645;SDS011;64237;52.438;13.240;2023-09-19T08:28:03;6.00;;;1.70;;
75645;SDS011;64237;52.438;13.240;2023-09-19T08:30:33;4.38;;;1.80;;
75645;SDS011;64237;52.438;13.240;2023-09-19T08:33:02;4.30;;;1.58;;
75645;SDS011;64237;52.438;13.240;2023-09-19T08:35:29;6.03;;;2.00;;
75645;SDS011;64237;52.438;13.240;2023-09-19T08:37:55;4.53;;;1.65;;
75645;SDS011;64237;52.438;13.240;2023-09-19T08:40:27;4.60;;;1.52;;
75645;SDS011;64237;52.438;13.240;2023-09-19T08:42:54;5.57;;;1.73;;
75645;SDS011;64237;52.438;13.240;2023-09-19T08:45:21;4.28;;;1.90;;
75645;SDS011;64237;52.438;13.240;2023-09-19T08:50:39;6.13;;;2.03;;
75645;SDS011;64237;52.438;13.240;2023-09-19T08:53:14;4.82;;;1.60;;
75645;SDS011;64237;52.438;13.240;2023-09-19T08:55:47;6.25;;;1.90;;
75645;SDS011;64237;52.438;13.240;2023-09-19T08:58:22;5.07;;;1.90;;
75645;SDS011;64237;52.438;13.240;2023-09-19T09:01:15;4.03;;;1.55;;
75645;SDS011;64237;52.438;13.240;2023-09-19T09:03:44;4.95;;;1.80;;
75645;SDS011;64237;52.438;13.240;2023-09-19T09:06:13;5.65;;;1.88;;
75645;SDS011;64237;52.438;13.240;2023-09-19T09:08:51;7.05;;;1.50;;
75645;SDS011;64237;52.438;13.240;2023-09-19T09:11:17;6.63;;;1.98;;
75645;SDS011;64237;52.438;13.240;2023-09-19T09:13:43;7.85;;;1.90;;
75645;SDS011;64237;52.438;13.240;2023-09-19T09:16:09;4.75;;;1.90;;
75645;SDS011;64237;52.438;13.240;2023-09-19T09:18:35;8.27;;;2.08;;
75645;SDS011;64237;52.438;13.240;2023-09-19T09:21:01;5.70;;;1.88;;
75645;SDS011;64237;52.438;13.240;2023-09-19T09:23:27;6.05;;;2.20;;
75645;SDS011;64237;52.438;13.240;2023-09-19T09:25:56;5.85;;;2.25;;
75645;SDS011;64237;52.438;13.240;2023-09-19T09:28:27;6.97;;;2.22;;
75645;SDS011;64237;52.438;13.240;2023-09-19T09:30:55;5.18;;;1.77;;
75645;SDS011;64237;52.438;13.240;2023-09-19T09:33:23;7.05;;;2.08;;
75645;SDS011;64237;52.438;13.240;2023-09-19T09:35:56;5.15;;;1.70;;
75645;SDS011;64237;52.438;13.240;2023-09-19T09:38:25;4.88;;;1.63;;
75645;SDS011;64237;52.438;13.240;2023-09-19T09:40:57;3.83;;;1.48;;
75645;SDS011;64237;52.438;13.240;2023-09-19T09:43:36;6.38;;;1.70;;
75645;SDS011;64237;52.438;13.240;2023-09-19T09:46:15;4.30;;;1.70;;
75645;SDS011;64237;52.438;13.240;2023-09-19T09:48:56;7.00;;;1.73;;
75645;SDS011;64237;52.438;13.240;2023-09-19T09:54:32;8.27;;;1.50;;
75645;SDS011;64237;52.438;13.240;2023-09-19T09:57:03;6.40;;;1.52;;
75645;SDS011;64237;52.438;13.240;2023-09-19T09:59:54;4.45;;;1.50;;
75645;SDS011;64237;52.438;13.240;2023-09-19T10:02:46;7.30;;;1.60;;
75645;SDS011;64237;52.438;13.240;2023-09-19T10:08:11;5.13;;;1.55;;
75645;SDS011;64237;52.438;13.240;2023-09-19T10:10:44;6.88;;;1.65;;
75645;SDS011;64237;52.438;13.240;2023-09-19T10:13:21;6.65;;;1.83;;
75645;SDS011;64237;52.438;13.240;2023-09-19T10:15:53;8.05;;;2.33;;
75645;SDS011;64237;52.438;13.240;2023-09-19T10:18:23;6.00;;;1.73;;
75645;SDS011;64237;52.438;13.240;2023-09-19T10:20:53;6.35;;;1.70;;
75645;SDS011;64237;52.438;13.240;2023-09-19T10:23:20;6.70;;;1.80;;
75645;SDS011;64237;52.438;13.240;2023-09-19T10:25:56;4.97;;;1.65;;
75645;SDS011;64237;52.438;13.240;2023-09-19T10:28:30;4.40;;;1.50;;
75645;SDS011;64237;52.438;13.240;2023-09-19T10:30:59;6.88;;;1.70;;
75645;SDS011;64237;52.438;13.240;2023-09-19T10:33:27;5.15;;;1.60;;
75645;SDS011;64237;52.438;13.240;2023-09-19T10:36:02;6.53;;;2.13;;
75645;SDS011;64237;52.438;13.240;2023-09-19T10:38:30;5.53;;;1.65;;
75645;SDS011;64237;52.438;13.240;2023-09-19T10:40:58;7.63;;;2.00;;
75645;SDS011;64237;52.438;13.240;2023-09-19T10:43:26;5.65;;;1.80;;
75645;SDS011;64237;52.438;13.240;2023-09-19T10:45:56;5.15;;;1.63;;
75645;SDS011;64237;52.438;13.240;2023-09-19T10:48:25;5.18;;;1.83;;
75645;SDS011;64237;52.438;13.240;2023-09-19T10:53:25;6.90;;;1.77;;
75645;SDS011;64237;52.438;13.240;2023-09-19T10:55:56;8.43;;;1.80;;
75645;SDS011;64237;52.438;13.240;2023-09-19T10:58:31;6.97;;;1.90;;
75645;SDS011;64237;52.438;13.240;2023-09-19T11:01:05;9.00;;;1.77;;
75645;SDS011;64237;52.438;13.240;2023-09-19T11:03:41;4.75;;;1.50;;
75645;SDS011;64237;52.438;13.240;2023-09-19T11:06:19;8.63;;;1.75;;
75645;SDS011;64237;52.438;13.240;2023-09-19T11:20:32;8.73;;;1.70;;
75645;SDS011;64237;52.438;13.240;2023-09-19T11:25:47;6.10;;;1.65;;
75645;SDS011;64237;52.438;13.240;2023-09-19T11:30:47;5.30;;;1.50;;
75645;SDS011;64237;52.438;13.240;2023-09-19T11:33:26;4.38;;;1.50;;
75645;SDS011;64237;52.438;13.240;2023-09-19T11:36:02;6.43;;;1.33;;
75645;SDS011;64237;52.438;13.240;2023-09-19T11:43:53;5.00;;;1.30;;
75645;SDS011;64237;52.438;13.240;2023-09-19T11:46:54;4.15;;;1.27;;
75645;SDS011;64237;52.438;13.240;2023-09-19T11:49:28;7.20;;;1.65;;
75645;SDS011;64237;52.438;13.240;2023-09-19T11:52:00;4.18;;;1.30;;
75645;SDS011;64237;52.438;13.240;2023-09-19T11:54:36;5.95;;;1.42;;
75645;SDS011;64237;52.438;13.240;2023-09-19T11:57:05;5.30;;;1.40;;
75645;SDS011;64237;52.438;13.240;2023-09-19T11:59:37;7.70;;;1.27;;
75645;SDS011;64237;52.438;13.240;2023-09-19T12:02:04;4.47;;;1.40;;
75645;SDS011;64237;52.438;13.240;2023-09-19T12:04:53;5.57;;;1.25;;
75645;SDS011;64237;52.438;13.240;2023-09-19T12:07:24;9.90;;;1.77;;
75645;SDS011;64237;52.438;13.240;2023-09-19T12:09:51;3.75;;;1.20;;
75645;SDS011;64237;52.438;13.240;2023-09-19T12:12:32;4.55;;;1.10;;
75645;SDS011;64237;52.438;13.240;2023-09-19T12:15:01;4.40;;;1.20;;
75645;SDS011;64237;52.438;13.240;2023-09-19T12:17:35;3.55;;;1.27;;
75645;SDS011;64237;52.438;13.240;2023-09-19T12:20:12;6.38;;;1.30;;
75645;SDS011;64237;52.438;13.240;2023-09-19T12:22:46;6.03;;;1.20;;
75645;SDS011;64237;52.438;13.240;2023-09-19T12:25:15;6.95;;;1.30;;
75645;SDS011;64237;52.438;13.240;2023-09-19T12:27:51;4.13;;;1.10;;
75645;SDS011;64237;52.438;13.240;2023-09-19T12:30:29;2.92;;;1.10;;
75645;SDS011;64237;52.438;13.240;2023-09-19T12:32:58;6.57;;;1.10;;
75645;SDS011;64237;52.438;13.240;2023-09-19T12:35:33;4.30;;;1.08;;
75645;SDS011;64237;52.438;13.240;2023-09-19T12:40:51;4.55;;;1.02;;
75645;SDS011;64237;52.438;13.240;2023-09-19T12:43:20;8.00;;;1.58;;
75645;SDS011;64237;52.438;13.240;2023-09-19T12:45:47;5.88;;;1.52;;
75645;SDS011;64237;52.438;13.240;2023-09-19T12:53:57;9.90;;;1.40;;
75645;SDS011;64237;52.438;13.240;2023-09-19T12:56:23;3.72;;;1.20;;
75645;SDS011;64237;52.438;13.240;2023-09-19T12:58:56;3.80;;;1.10;;
75645;SDS011;64237;52.438;13.240;2023-09-19T13:01:23;8.30;;;1.40;;
75645;SDS011;64237;52.438;13.240;2023-09-19T13:06:43;4.65;;;1.30;;
75645;SDS011;64237;52.438;13.240;2023-09-19T13:09:15;2.63;;;1.10;;
75645;SDS011;64237;52.438;13.240;2023-09-19T13:11:41;7.97;;;1.20;;
75645;SDS011;64237;52.438;13.240;2023-09-19T13:14:25;6.25;;;1.38;;
75645;SDS011;64237;52.438;13.240;2023-09-19T13:17:08;2.30;;;0.88;;
75645;SDS011;64237;52.438;13.240;2023-09-19T13:19:50;3.78;;;1.10;;
75645;SDS011;64237;52.438;13.240;2023-09-19T13:25:20;4.20;;;1.15;;
75645;SDS011;64237;52.438;13.240;2023-09-19T13:27:50;3.42;;;0.95;;
75645;SDS011;64237;52.438;13.240;2023-09-19T13:30:19;2.75;;;0.95;;
75645;SDS011;64237;52.438;13.240;2023-09-19T13:32:49;3.83;;;1.10;;
75645;SDS011;64237;52.438;13.240;2023-09-19T13:35:14;4.15;;;0.95;;
75645;SDS011;64237;52.438;13.240;2023-09-19T13:37:40;4.07;;;1.08;;
75645;SDS011;64237;52.438;13.240;2023-09-19T13:40:10;2.55;;;1.00;;
75645;SDS011;64237;52.438;13.240;2023-09-19T13:42:40;4.68;;;1.17;;
75645;SDS011;64237;52.438;13.240;2023-09-19T13:45:09;5.05;;;1.25;;
75645;SDS011;64237;52.438;13.240;2023-09-19T13:47:42;4.07;;;1.00;;
75645;SDS011;64237;52.438;13.240;2023-09-19T13:50:08;3.83;;;1.00;;
75645;SDS011;64237;52.438;13.240;2023-09-19T13:52:34;3.15;;;1.00;;
75645;SDS011;64237;52.438;13.240;2023-09-19T13:54:59;4.90;;;1.13;;
75645;SDS011;64237;52.438;13.240;2023-09-19T13:57:25;6.50;;;1.10;;
75645;SDS011;64237;52.438;13.240;2023-09-19T13:59:54;7.65;;;1.75;;
75645;SDS011;64237;52.438;13.240;2023-09-19T14:02:23;3.15;;;1.02;;
75645;SDS011;64237;52.438;13.240;2023-09-19T14:04:54;5.95;;;1.20;;
75645;SDS011;64237;52.438;13.240;2023-09-19T14:07:23;5.28;;;1.40;;
75645;SDS011;64237;52.438;13.240;2023-09-19T14:09:48;2.47;;;0.98;;
75645;SDS011;64237;52.438;13.240;2023-09-19T14:12:14;4.00;;;1.30;;
75645;SDS011;64237;52.438;13.240;2023-09-19T14:14:40;2.58;;;1.15;;
75645;SDS011;64237;52.438;13.240;2023-09-19T14:17:08;3.10;;;0.95;;
75645;SDS011;64237;52.438;13.240;2023-09-19T14:19:34;6.57;;;1.20;;
75645;SDS011;64237;52.438;13.240;2023-09-19T14:22:04;4.95;;;1.17;;
75645;SDS011;64237;52.438;13.240;2023-09-19T14:24:32;6.28;;;1.38;;
75645;SDS011;64237;52.438;13.240;2023-09-19T14:26:58;5.07;;;1.15;;
75645;SDS011;64237;52.438;13.240;2023-09-19T14:29:24;4.05;;;1.33;;
75645;SDS011;64237;52.438;13.240;2023-09-19T14:31:49;5.40;;;1.45;;
75645;SDS011;64237;52.438;13.240;2023-09-19T14:34:16;4.38;;;1.40;;
75645;SDS011;64237;52.438;13.240;2023-09-19T14:36:45;3.67;;;1.33;;
75645;SDS011;64237;52.438;13.240;2023-09-19T14:39:10;4.63;;;0.95;;
75645;SDS011;64237;52.438;13.240;2023-09-19T14:41:37;4.10;;;1.15;;
75645;SDS011;64237;52.438;13.240;2023-09-19T14:44:02;2.47;;;1.10;;
75645;SDS011;64237;52.438;13.240;2023-09-19T14:46:28;4.53;;;1.48;;
75645;SDS011;64237;52.438;13.240;2023-09-19T14:49:00;5.37;;;1.30;;
75645;SDS011;64237;52.438;13.240;2023-09-19T14:51:29;3.78;;;1.00;;
75645;SDS011;64237;52.438;13.240;2023-09-19T14:53:55;4.78;;;1.23;;
75645;SDS011;64237;52.438;13.240;2023-09-19T14:56:20;2.65;;;1.20;;
75645;SDS011;64237;52.438;13.240;2023-09-19T14:58:47;5.10;;;1.35;;
75645;SDS011;64237;52.438;13.240;2023-09-19T15:01:12;3.50;;;1.03;;
75645;SDS011;64237;52.438;13.240;2023-09-19T15:03:41;5.20;;;1.70;;
75645;SDS011;64237;52.438;13.240;2023-09-19T15:06:15;4.18;;;1.08;;
75645;SDS011;64237;52.438;13.240;2023-09-19T15:08:45;4.30;;;1.52;;
75645;SDS011;64237;52.438;13.240;2023-09-19T15:11:15;5.53;;;1.70;;
75645;SDS011;64237;52.438;13.240;2023-09-19T15:13:45;5.18;;;1.42;;
75645;SDS011;64237;52.438;13.240;2023-09-19T15:16:16;4.53;;;1.20;;
75645;SDS011;64237;52.438;13.240;2023-09-19T15:18:44;3.47;;;1.30;;
75645;SDS011;64237;52.438;13.240;2023-09-19T15:21:15;7.60;;;1.30;;
75645;SDS011;64237;52.438;13.240;2023-09-19T15:23:53;3.65;;;1.10;;
75645;SDS011;64237;52.438;13.240;2023-09-19T15:26:18;5.57;;;1.30;;
75645;SDS011;64237;52.438;13.240;2023-09-19T15:28:46;6.22;;;1.50;;
75645;SDS011;64237;52.438;13.240;2023-09-19T15:31:13;7.05;;;1.70;;
75645;SDS011;64237;52.438;13.240;2023-09-19T15:33:41;5.07;;;1.40;;
75645;SDS011;64237;52.438;13.240;2023-09-19T15:36:25;5.70;;;1.30;;
75645;SDS011;64237;52.438;13.240;2023-09-19T15:39:03;7.93;;;1.50;;
75645;SDS011;64237;52.438;13.240;2023-09-19T15:41:45;4.07;;;1.10;;
75645;SDS011;64237;52.438;13.240;2023-09-19T15:44:21;3.28;;;1.40;;
75645;SDS011;64237;52.438;13.240;2023-09-19T15:46:47;4.40;;;1.40;;
75645;SDS011;64237;52.438;13.240;2023-09-19T15:49:16;3.08;;;1.00;;
75645;SDS011;64237;52.438;13.240;2023-09-19T15:51:44;5.25;;;1.20;;